createdAt,value
2022-11-17T00:01:39.459Z,85.59
2022-11-17T00:04:11.221Z,85.24
2022-11-17T00:06:39.571Z,85.23
2022-11-17T00:09:12.328Z,85.92
2022-11-17T00:11:54.606Z,85.75
2022-11-17T00:14:34.444Z,85.45
2022-11-17T00:17:05.771Z,85.21
2022-11-17T00:19:53.298Z,85.43
2022-11-17T00:22:22.423Z,85.80
2022-11-17T00:24:51.109Z,85.90
2022-11-17T00:27:19.579Z,85.14
2022-11-17T00:29:47.690Z,84.86
2022-11-17T00:32:34.987Z,85.39
2022-11-17T00:35:05.877Z,85.47
2022-11-17T00:37:37.021Z,85.27
2022-11-17T00:40:05.728Z,84.93
2022-11-17T00:42:34.153Z,85.37
2022-11-17T00:45:02.225Z,85.32
2022-11-17T00:47:30.595Z,84.98
2022-11-17T00:49:58.669Z,84.88
2022-11-17T00:52:28.408Z,85.13
2022-11-17T00:54:56.248Z,85.69
2022-11-17T00:57:24.631Z,84.92
2022-11-17T00:59:52.715Z,84.82
2022-11-17T01:02:21.102Z,85.17
2022-11-17T01:04:49.188Z,84.05
2022-11-17T01:07:17.588Z,84.41
2022-11-17T01:09:47.065Z,84.45
2022-11-17T01:12:17.759Z,84.14
2022-11-17T01:14:46.240Z,84.33
2022-11-17T01:17:17.944Z,84.39
2022-11-17T01:19:46.116Z,84.46
2022-11-17T01:22:14.545Z,84.47
2022-11-17T01:24:42.594Z,83.84
2022-11-17T01:27:12.515Z,84.64
2022-11-17T01:29:40.763Z,83.99
2022-11-17T01:32:09.122Z,83.77
2022-11-17T01:34:37.520Z,83.87
2022-11-17T01:37:21.204Z,83.67
2022-11-17T01:39:50.396Z,83.44
2022-11-17T01:42:22.313Z,83.32
2022-11-17T01:44:59.207Z,83.72
2022-11-17T01:47:34.011Z,83.53
2022-11-17T01:50:07.993Z,83.02
2022-11-17T01:52:39.198Z,82.53
2022-11-17T01:55:10.007Z,82.61
2022-11-17T01:57:47.760Z,82.36
2022-11-17T02:00:17.507Z,82.63
2022-11-17T02:02:48.571Z,82.93
2022-11-17T02:05:28.337Z,83.00
2022-11-17T02:07:59.436Z,83.68
2022-11-17T02:10:29.818Z,83.79
2022-11-17T02:12:59.983Z,83.43
2022-11-17T02:15:29.334Z,83.94
2022-11-17T02:17:59.520Z,83.61
2022-11-17T02:20:42.821Z,83.84
2022-11-17T02:23:39.259Z,83.47
2022-11-17T02:26:38.749Z,83.91
2022-11-17T02:29:18.073Z,83.28
2022-11-17T02:31:54.208Z,83.92
2022-11-17T02:34:35.856Z,83.54
2022-11-17T02:37:12.115Z,82.98
2022-11-17T02:39:48.511Z,82.83
2022-11-17T02:42:45.132Z,82.89
2022-11-17T02:45:20.084Z,83.11
2022-11-17T02:47:51.831Z,83.26
2022-11-17T02:50:27.998Z,82.56
2022-11-17T02:52:56.728Z,82.41
2022-11-17T02:55:25.111Z,82.28
2022-11-17T02:57:53.259Z,82.09
2022-11-17T03:00:23.167Z,82.26
2022-11-17T03:03:21.176Z,82.68
2022-11-17T03:05:59.800Z,83.44
2022-11-17T03:08:37.358Z,83.14
2022-11-17T03:11:08.178Z,82.80
2022-11-17T03:13:45.326Z,82.85
2022-11-17T03:16:26.327Z,82.84
2022-11-17T03:19:03.105Z,82.86
2022-11-17T03:21:37.781Z,82.43
2022-11-17T03:24:12.670Z,81.78
2022-11-17T03:26:45.713Z,82.19
2022-11-17T03:29:17.016Z,82.43
2022-11-17T03:31:50.439Z,82.07
2022-11-17T03:34:21.127Z,82.49
2022-11-17T03:36:53.500Z,82.75
2022-11-17T03:39:26.240Z,82.99
2022-11-17T03:41:58.644Z,82.75
2022-11-17T03:44:29.976Z,82.73
2022-11-17T03:47:03.853Z,82.42
2022-11-17T03:49:40.983Z,82.86
2022-11-17T03:52:10.025Z,82.86
2022-11-17T03:54:38.707Z,82.81
2022-11-17T03:57:13.959Z,82.22
2022-11-17T03:59:55.127Z,82.92
2022-11-17T04:02:26.412Z,81.86
2022-11-17T04:05:06.820Z,82.05
2022-11-17T04:07:36.584Z,82.76
2022-11-17T04:10:05.057Z,82.30
2022-11-17T04:12:51.233Z,82.06
2022-11-17T04:15:36.892Z,82.03
2022-11-17T04:18:07.096Z,81.68
2022-11-17T04:20:37.062Z,82.14
2022-11-17T04:23:09.190Z,81.65
2022-11-17T04:25:56.242Z,81.45
2022-11-17T04:28:38.401Z,81.92
2022-11-17T04:31:12.968Z,81.89
2022-11-17T04:33:44.985Z,81.87
2022-11-17T04:36:14.670Z,81.61
2022-11-17T04:38:44.021Z,82.09
2022-11-17T04:41:31.474Z,81.74
2022-11-17T04:44:02.079Z,81.84
2022-11-17T04:46:31.677Z,82.25
2022-11-17T04:49:02.449Z,82.65
2022-11-17T04:51:31.492Z,82.42
2022-11-17T04:54:00.147Z,82.97
2022-11-17T04:56:29.924Z,82.68
2022-11-17T04:58:58.909Z,82.75
2022-11-17T05:01:28.247Z,82.81
2022-11-17T05:03:57.950Z,82.53
2022-11-17T05:06:29.060Z,83.34
2022-11-17T05:08:58.028Z,83.51
2022-11-17T05:11:45.122Z,82.77
2022-11-17T05:14:15.387Z,83.74
2022-11-17T05:17:07.352Z,83.21
2022-11-17T05:19:39.812Z,83.26
2022-11-17T05:22:24.985Z,83.41
2022-11-17T05:24:53.324Z,84.10
2022-11-17T05:27:21.934Z,83.28
2022-11-17T05:29:50.512Z,83.35
2022-11-17T05:32:19.115Z,83.39
2022-11-17T05:34:47.641Z,83.14
2022-11-17T05:37:17.330Z,83.88
2022-11-17T05:39:45.667Z,83.51
2022-11-17T05:42:13.737Z,84.02
2022-11-17T05:44:43.643Z,83.96
2022-11-17T05:47:11.756Z,83.63
2022-11-17T05:49:40.092Z,83.55
2022-11-17T05:52:08.321Z,83.94
2022-11-17T05:54:38.091Z,84.00
2022-11-17T05:57:08.320Z,83.42
2022-11-17T05:59:43.235Z,83.65
2022-11-17T06:02:15.327Z,83.42
2022-11-17T06:04:46.416Z,83.74
2022-11-17T06:07:15.113Z,83.62
2022-11-17T06:09:44.550Z,83.31
2022-11-17T06:12:13.329Z,83.31
2022-11-17T06:14:41.359Z,83.07
2022-11-17T06:17:17.536Z,83.35
2022-11-17T06:19:55.330Z,83.83
2022-11-17T06:22:24.074Z,83.78
2022-11-17T06:24:54.185Z,84.01
2022-11-17T06:27:23.096Z,84.13
2022-11-17T06:29:51.506Z,84.02
2022-11-17T06:32:20.884Z,83.54
2022-11-17T06:34:55.636Z,83.66
2022-11-17T06:37:25.710Z,84.14
2022-11-17T06:39:55.229Z,83.64
2022-11-17T06:42:43.995Z,83.25
2022-11-17T06:45:13.240Z,83.13
2022-11-17T06:47:41.401Z,82.81
2022-11-17T06:50:12.452Z,83.26
2022-11-17T06:52:40.887Z,83.16
2022-11-17T06:55:11.272Z,83.17
2022-11-17T06:57:39.553Z,82.65
2022-11-17T07:00:09.344Z,82.13
2022-11-17T07:02:37.800Z,82.07
2022-11-17T07:05:06.412Z,82.13
2022-11-17T07:07:35.035Z,82.02
2022-11-17T07:10:03.139Z,82.17
2022-11-17T07:12:34.340Z,82.38
2022-11-17T07:15:02.727Z,82.35
2022-11-17T07:17:31.087Z,81.78
2022-11-17T07:19:59.383Z,82.07
2022-11-17T07:22:27.838Z,82.52
2022-11-17T07:24:55.922Z,82.33
2022-11-17T07:27:24.239Z,82.16
2022-11-17T07:29:53.945Z,82.01
2022-11-17T07:32:22.381Z,82.11
2022-11-17T07:34:50.519Z,82.53
2022-11-17T07:37:19.088Z,82.37
2022-11-17T07:39:47.115Z,82.49
2022-11-17T07:42:15.799Z,82.78
2022-11-17T07:44:44.672Z,83.24
2022-11-17T07:47:14.404Z,82.45
2022-11-17T07:49:42.325Z,82.07
2022-11-17T07:52:12.050Z,82.31
2022-11-17T07:54:40.548Z,82.53
2022-11-17T07:57:08.873Z,82.07
2022-11-17T07:59:37.091Z,81.94
2022-11-17T08:02:05.442Z,81.82
2022-11-17T08:04:34.941Z,81.56
2022-11-17T08:07:03.431Z,81.71
2022-11-17T08:09:31.587Z,81.50
2022-11-17T08:12:00.363Z,82.28
2022-11-17T08:14:28.605Z,81.46
2022-11-17T08:16:56.923Z,81.15
2022-11-17T08:19:25.047Z,80.93
2022-11-17T08:21:54.875Z,80.33
2022-11-17T08:24:22.663Z,80.09
2022-11-17T08:26:51.044Z,79.46
2022-11-17T08:29:19.198Z,80.18
2022-11-17T08:31:47.857Z,79.50
2022-11-17T08:34:15.946Z,78.35
2022-11-17T08:36:44.341Z,77.61
2022-11-17T08:39:14.914Z,77.32
2022-11-17T08:41:43.242Z,77.94
2022-11-17T08:44:11.356Z,76.61
2022-11-17T08:46:39.706Z,76.61
2022-11-17T08:49:07.741Z,76.49
2022-11-17T08:51:36.427Z,76.88
2022-11-17T08:54:04.834Z,76.72
2022-11-17T08:56:34.513Z,77.24
2022-11-17T08:59:03.623Z,76.77
2022-11-17T09:01:32.065Z,76.37
2022-11-17T09:04:00.133Z,76.02
2022-11-17T09:06:28.603Z,74.65
2022-11-17T09:08:56.868Z,75.32
2022-11-17T09:11:25.401Z,74.83
2022-11-17T09:13:55.407Z,75.28
2022-11-17T09:16:25.319Z,74.88
2022-11-17T09:18:58.744Z,74.42
2022-11-17T09:21:27.514Z,74.68
2022-11-17T09:23:55.842Z,74.62
2022-11-17T09:26:24.363Z,74.87
2022-11-17T09:28:52.450Z,74.93
2022-11-17T09:31:24.087Z,74.73
2022-11-17T09:33:52.277Z,75.23
2022-11-17T09:36:20.784Z,74.38
2022-11-17T09:38:49.283Z,73.51
2022-11-17T09:41:24.354Z,73.77
2022-11-17T09:44:00.587Z,72.77
2022-11-17T09:46:42.512Z,73.17
2022-11-17T09:49:27.998Z,72.86
2022-11-17T09:52:01.738Z,72.92
2022-11-17T09:54:39.487Z,72.80
2022-11-17T09:57:20.082Z,72.31
2022-11-17T09:59:57.674Z,72.40
2022-11-17T10:02:27.665Z,71.48
2022-11-17T10:04:56.136Z,71.54
2022-11-17T10:07:24.803Z,71.58
2022-11-17T10:09:54.073Z,71.72
2022-11-17T10:12:25.073Z,71.39
2022-11-17T10:14:55.931Z,70.25
2022-11-17T10:17:24.441Z,70.82
2022-11-17T10:19:53.892Z,70.34
2022-11-17T10:22:35.694Z,70.42
2022-11-17T10:25:04.981Z,71.62
2022-11-17T10:27:35.502Z,72.46
2022-11-17T10:30:07.087Z,72.66
2022-11-17T10:32:39.928Z,72.69
2022-11-17T10:35:18.993Z,72.32
2022-11-17T10:37:55.877Z,73.12
2022-11-17T10:40:26.169Z,73.23
2022-11-17T10:43:24.106Z,72.97
2022-11-17T10:45:55.865Z,73.02
2022-11-17T10:48:32.159Z,72.95
2022-11-17T10:51:03.007Z,73.06
2022-11-17T10:53:41.264Z,72.19
2022-11-17T10:56:18.948Z,72.94
2022-11-17T10:59:00.528Z,72.49
2022-11-17T11:01:31.183Z,72.65
2022-11-17T11:03:59.735Z,73.21
2022-11-17T11:06:30.793Z,72.86
2022-11-17T11:09:03.112Z,72.65
2022-11-17T11:11:44.727Z,71.56
2022-11-17T11:14:19.384Z,72.35
2022-11-17T11:16:50.425Z,72.60
2022-11-17T11:19:20.601Z,72.76
2022-11-17T11:22:19.748Z,73.13
2022-11-17T11:24:55.982Z,73.58
2022-11-17T11:27:38.802Z,73.79
2022-11-17T11:30:12.432Z,73.72
2022-11-17T11:32:52.438Z,73.49
2022-11-17T11:35:34.526Z,73.00
2022-11-17T11:38:17.197Z,73.52
2022-11-17T11:40:56.255Z,73.75
2022-11-17T11:43:35.321Z,74.40
2022-11-17T11:46:15.649Z,74.70
2022-11-17T11:48:48.933Z,75.26
2022-11-17T11:51:19.873Z,75.31
2022-11-17T11:53:56.073Z,75.14
2022-11-17T11:56:32.991Z,75.19
2022-11-17T11:59:05.366Z,75.44
2022-11-17T12:01:44.889Z,74.79
2022-11-17T12:04:28.014Z,74.29
2022-11-17T12:07:05.791Z,74.14
2022-11-17T12:09:50.411Z,73.79
2022-11-17T12:12:21.177Z,74.54
2022-11-17T12:15:31.409Z,74.16
2022-11-17T12:18:02.333Z,74.43
2022-11-17T12:20:58.417Z,74.44
2022-11-17T12:24:11.100Z,74.22
2022-11-17T12:26:41.327Z,74.43
2022-11-17T12:29:27.196Z,74.97
2022-11-17T12:31:56.521Z,75.09
2022-11-17T12:34:27.551Z,74.64
2022-11-17T12:37:22.040Z,74.63
2022-11-17T12:40:03.916Z,74.95
2022-11-17T12:42:37.300Z,74.82
2022-11-17T12:45:10.311Z,74.84
2022-11-17T12:47:40.632Z,75.20
2022-11-17T12:50:33.825Z,80.53
2022-11-17T12:53:36.075Z,73.96
2022-11-17T12:56:29.083Z,74.90
2022-11-17T12:59:23.743Z,75.37
2022-11-17T13:02:00.412Z,75.98
2022-11-17T13:04:38.960Z,77.05
2022-11-17T13:07:09.052Z,76.37
2022-11-17T13:09:37.780Z,76.35
2022-11-17T13:12:08.065Z,76.57
2022-11-17T13:14:52.651Z,76.46
2022-11-17T13:17:21.829Z,76.07
2022-11-17T13:19:58.797Z,76.02
2022-11-17T13:22:27.020Z,76.09
2022-11-17T13:24:55.528Z,77.58
2022-11-17T13:27:25.463Z,76.51
2022-11-17T13:30:14.417Z,76.82
2022-11-17T13:32:43.442Z,77.69
2022-11-17T13:35:30.558Z,78.09
2022-11-17T13:38:03.543Z,79.63
2022-11-17T13:40:34.796Z,78.43
2022-11-17T13:43:04.567Z,78.98
2022-11-17T13:45:34.466Z,78.54
2022-11-17T13:48:02.643Z,78.88
2022-11-17T13:50:38.219Z,79.18
2022-11-17T13:53:34.445Z,79.40
2022-11-17T13:56:02.830Z,79.57
2022-11-17T13:58:39.375Z,79.63
2022-11-17T14:01:13.278Z,79.59
2022-11-17T14:03:43.662Z,79.90
2022-11-17T14:06:14.377Z,80.60
2022-11-17T14:08:44.255Z,80.63
2022-11-17T14:11:21.624Z,80.62
2022-11-17T14:13:52.576Z,80.99
2022-11-17T14:16:26.629Z,81.47
2022-11-17T14:19:03.603Z,82.40
2022-11-17T14:21:32.859Z,83.72
2022-11-17T14:24:11.957Z,83.24
2022-11-17T14:26:45.486Z,83.06
2022-11-17T14:29:14.748Z,83.21
2022-11-17T14:31:44.560Z,83.75
2022-11-17T14:34:12.942Z,86.04
2022-11-17T14:36:42.262Z,85.86
2022-11-17T14:39:18.472Z,85.20
2022-11-17T14:41:48.929Z,85.03
2022-11-17T14:44:17.601Z,87.27
2022-11-17T14:46:47.391Z,87.53
2022-11-17T14:49:15.775Z,87.80
2022-11-17T14:51:44.487Z,86.98
2022-11-17T14:54:12.563Z,86.56
2022-11-17T14:56:41.283Z,86.37
2022-11-17T14:59:12.156Z,87.03
2022-11-17T15:01:41.399Z,87.87
2022-11-17T15:04:48.235Z,88.12
2022-11-17T15:07:05.055Z,89.78
2022-11-17T15:09:33.273Z,90.42
2022-11-17T15:12:02.595Z,91.32
2022-11-17T15:14:30.848Z,92.16
2022-11-17T15:16:59.248Z,92.40
2022-11-17T15:19:28.679Z,92.18
2022-11-17T15:21:57.681Z,92.32
2022-11-17T15:24:25.905Z,92.83
2022-11-17T15:26:54.266Z,93.06
2022-11-17T15:29:22.631Z,92.64
2022-11-17T15:31:51.226Z,92.46
2022-11-17T15:34:20.584Z,93.32
2022-11-17T15:36:51.166Z,93.74
2022-11-17T15:39:20.691Z,94.50
2022-11-17T15:41:50.744Z,94.90
2022-11-17T15:44:20.197Z,94.90
2022-11-17T15:46:48.600Z,95.35
2022-11-17T15:49:17.293Z,95.45
2022-11-17T15:51:47.989Z,94.43
2022-11-17T15:54:20.627Z,94.35
2022-11-17T15:56:51.091Z,94.34
2022-11-17T15:59:19.647Z,94.36
2022-11-17T16:01:48.386Z,94.51
2022-11-17T16:04:17.505Z,94.55
2022-11-17T16:06:47.349Z,94.15
2022-11-17T16:09:17.817Z,93.97
2022-11-17T16:11:46.655Z,94.21
2022-11-17T16:14:15.371Z,94.15
2022-11-17T16:16:46.564Z,94.29
2022-11-17T16:19:14.935Z,94.58
2022-11-17T16:21:45.646Z,95.24
2022-11-17T16:24:14.074Z,95.48
2022-11-17T16:26:45.055Z,95.22
2022-11-17T16:29:13.512Z,95.05
2022-11-17T16:31:42.319Z,96.13
2022-11-17T16:34:14.227Z,95.34
2022-11-17T16:36:44.796Z,95.39
2022-11-17T16:39:16.701Z,95.72
2022-11-17T16:41:47.539Z,95.36
2022-11-17T16:44:17.267Z,96.45
2022-11-17T16:46:50.128Z,94.97
2022-11-17T16:49:20.514Z,94.65
2022-11-17T16:51:51.180Z,96.62
2022-11-17T16:54:19.546Z,96.65
2022-11-17T16:56:49.273Z,96.07
2022-11-17T16:59:17.519Z,96.12
2022-11-17T17:01:46.395Z,97.95
2022-11-17T17:04:14.521Z,97.84
2022-11-17T17:06:44.896Z,97.65
2022-11-17T17:09:15.236Z,98.09
2022-11-17T17:11:43.880Z,98.23
2022-11-17T17:14:16.156Z,98.04
2022-11-17T17:16:44.827Z,98.42
2022-11-17T17:19:15.254Z,97.12
2022-11-17T17:21:45.801Z,96.09
2022-11-17T17:24:14.174Z,96.25
2022-11-17T17:26:42.972Z,97.01
2022-11-17T17:29:14.320Z,97.29
2022-11-17T17:31:43.595Z,98.22
2022-11-17T17:34:13.054Z,99.93
2022-11-17T17:36:42.058Z,100.00
2022-11-17T17:39:16.262Z,100.00
2022-11-17T17:41:46.320Z,99.92
2022-11-17T17:44:17.529Z,99.53
2022-11-17T17:46:48.767Z,98.73
2022-11-17T17:49:19.497Z,98.08
2022-11-17T17:51:48.333Z,97.94
2022-11-17T17:54:18.006Z,99.05
2022-11-17T17:56:46.564Z,97.77
2022-11-17T17:59:17.001Z,96.83
2022-11-17T18:01:47.801Z,96.82
2022-11-17T18:04:17.281Z,95.38
2022-11-17T18:06:48.118Z,95.35
2022-11-17T18:09:19.805Z,96.36
2022-11-17T18:11:50.001Z,96.18
2022-11-17T18:14:25.960Z,96.47
2022-11-17T18:16:54.932Z,95.60
2022-11-17T18:19:26.916Z,97.03
2022-11-17T18:21:58.459Z,97.27
2022-11-17T18:24:26.842Z,96.31
2022-11-17T18:26:55.211Z,95.55
2022-11-17T18:29:25.005Z,96.23
2022-11-17T18:31:53.841Z,95.47
2022-11-17T18:34:23.700Z,94.79
2022-11-17T18:36:56.974Z,93.98
2022-11-17T18:39:25.191Z,93.89
2022-11-17T18:41:53.535Z,96.26
2022-11-17T18:44:22.467Z,95.44
2022-11-17T18:46:52.391Z,95.50
2022-11-17T18:49:20.768Z,94.87
2022-11-17T18:51:50.778Z,95.98
2022-11-17T18:54:18.574Z,96.15
2022-11-17T18:56:46.991Z,97.13
2022-11-17T18:59:15.713Z,96.64
2022-11-17T19:01:44.390Z,96.71
2022-11-17T19:04:16.049Z,96.42
2022-11-17T19:06:45.471Z,95.83
2022-11-17T19:09:15.830Z,95.52
2022-11-17T19:11:45.610Z,95.67
2022-11-17T19:14:13.734Z,95.38
2022-11-17T19:16:45.072Z,95.21
2022-11-17T19:19:16.640Z,94.66
2022-11-17T19:21:48.193Z,94.88
2022-11-17T19:24:18.043Z,94.33
2022-11-17T19:26:47.909Z,94.13
2022-11-17T19:29:17.680Z,93.84
2022-11-17T19:31:47.496Z,93.63
2022-11-17T19:34:17.445Z,93.49
2022-11-17T19:36:46.127Z,92.82
2022-11-17T19:39:15.258Z,93.29
2022-11-17T19:41:45.192Z,92.82
2022-11-17T19:44:13.694Z,92.73
2022-11-17T19:46:43.389Z,92.51
2022-11-17T19:49:12.738Z,92.36
2022-11-17T19:51:42.650Z,92.84
2022-11-17T19:54:13.539Z,93.20
2022-11-17T19:56:41.929Z,94.14
2022-11-17T19:59:15.701Z,93.52
2022-11-17T20:01:45.142Z,93.90
2022-11-17T20:04:13.849Z,93.50
2022-11-17T20:06:43.715Z,94.01
2022-11-17T20:09:14.371Z,94.06
2022-11-17T20:11:44.363Z,93.87
2022-11-17T20:14:14.671Z,94.29
2022-11-17T20:16:44.359Z,94.82
2022-11-17T20:19:13.617Z,95.21
2022-11-17T20:21:45.815Z,95.92
2022-11-17T20:24:14.191Z,95.78
2022-11-17T20:26:44.289Z,96.02
2022-11-17T20:29:15.581Z,96.66
2022-11-17T20:31:44.176Z,97.58
2022-11-17T20:34:14.351Z,98.91
2022-11-17T20:36:44.536Z,98.62
2022-11-17T20:39:14.184Z,99.27
2022-11-17T20:41:42.734Z,99.73
2022-11-17T20:44:24.135Z,99.24
2022-11-17T20:46:55.023Z,97.70
2022-11-17T20:49:23.135Z,97.74
2022-11-17T20:51:53.281Z,98.49
2022-11-17T20:54:21.339Z,99.03
2022-11-17T20:56:49.787Z,97.91
2022-11-17T20:59:20.294Z,97.58
2022-11-17T21:01:50.576Z,97.95
2022-11-17T21:04:20.311Z,97.31
2022-11-17T21:06:48.638Z,96.73
2022-11-17T21:09:19.477Z,96.61
2022-11-17T21:12:00.838Z,96.03
2022-11-17T21:14:30.544Z,95.87
2022-11-17T21:17:00.847Z,95.50
2022-11-17T21:19:31.644Z,95.41
2022-11-17T21:22:01.732Z,95.24
2022-11-17T21:24:32.256Z,95.40
2022-11-17T21:27:00.544Z,96.46
2022-11-17T21:29:28.892Z,96.47
2022-11-17T21:31:57.266Z,96.49
2022-11-17T21:34:25.290Z,96.25
2022-11-17T21:36:54.849Z,95.36
2022-11-17T21:39:22.974Z,95.22
2022-11-17T21:41:52.689Z,95.66
2022-11-17T21:44:21.160Z,96.14
2022-11-17T21:46:49.691Z,95.71
2022-11-17T21:49:18.224Z,95.55
2022-11-17T21:51:46.803Z,96.03
2022-11-17T21:54:15.138Z,95.65
2022-11-17T21:56:43.509Z,95.51
2022-11-17T21:59:14.588Z,95.80
2022-11-17T22:01:43.436Z,95.75
2022-11-17T22:04:12.733Z,95.62
2022-11-17T22:06:41.238Z,95.97
2022-11-17T22:09:09.568Z,96.25
2022-11-17T22:11:39.094Z,99.77
2022-11-17T22:14:10.409Z,98.42
2022-11-17T22:16:41.864Z,98.92
2022-11-17T22:19:10.717Z,99.04
2022-11-17T22:21:40.226Z,99.27
2022-11-17T22:24:10.887Z,98.98
2022-11-17T22:26:41.118Z,100.00
2022-11-17T22:29:12.828Z,100.00
2022-11-17T22:31:42.894Z,100.00
2022-11-17T22:34:14.743Z,100.00
2022-11-17T22:36:43.397Z,100.00
2022-11-17T22:39:11.594Z,100.00
2022-11-17T22:41:40.540Z,100.00
2022-11-17T22:44:08.874Z,100.00
2022-11-17T22:46:37.285Z,100.00
2022-11-17T22:49:07.141Z,100.00
2022-11-17T22:51:52.907Z,100.00
2022-11-17T22:54:21.267Z,100.00
2022-11-17T22:56:49.735Z,100.00
2022-11-17T22:59:18.389Z,100.00
2022-11-17T23:01:46.957Z,100.00
2022-11-17T23:04:16.769Z,100.00
2022-11-17T23:06:45.536Z,100.00
2022-11-17T23:09:13.869Z,100.00
2022-11-17T23:11:43.118Z,100.00
2022-11-17T23:14:13.360Z,100.00
2022-11-17T23:16:42.533Z,100.00
2022-11-17T23:19:13.817Z,100.00
2022-11-17T23:21:43.677Z,100.00
2022-11-17T23:24:13.039Z,100.00
2022-11-17T23:26:42.309Z,100.00
2022-11-17T23:29:10.523Z,100.00
2022-11-17T23:31:39.044Z,100.00
2022-11-17T23:34:09.988Z,100.00
2022-11-17T23:36:38.576Z,100.00
2022-11-17T23:39:08.417Z,100.00
2022-11-17T23:41:36.943Z,100.00
2022-11-17T23:44:05.412Z,100.00
2022-11-17T23:46:33.918Z,100.00
2022-11-17T23:49:03.675Z,100.00
2022-11-17T23:51:32.082Z,100.00
2022-11-17T23:54:02.749Z,100.00
2022-11-17T23:56:35.019Z,100.00
2022-11-17T23:59:03.623Z,100.00
